<?xml version='1.0' encoding='UTF-8'?><gpx version="1.1" creator="JPX - https://github.com/jenetics/jpx" xmlns="http://www.topografix.com/GPX/1/1"><trk><trkseg><trkpt lat="43.05705075480897" lon="11.491188244316549"><ele>546.0</ele><time>2026-04-25T12:58:38.986Z</time></trkpt><trkpt lat="43.05710783147868" lon="11.491092344293026"><ele>546.0</ele><time>2026-04-25T12:58:40.986Z</time></trkpt><trkpt lat="43.05718297584312" lon="11.491026639569554"><ele>546.0</ele><time>2026-04-25T12:58:43.986Z</time></trkpt><trkpt lat="43.057240330410885" lon="11.490968500975988"><ele>546.0</ele><time>2026-04-25T12:58:45.986Z</time></trkpt><trkpt lat="43.05730734496201" lon="11.490901242604298"><ele>546.0</ele><time>2026-04-25T12:58:47.986Z</time></trkpt><trkpt lat="43.05737973545357" lon="11.49082718036379"><ele>546.0</ele><time>2026-04-25T12:58:49.986Z</time></trkpt><trkpt lat="43.057446828268134" lon="11.490756752145446"><ele>546.6666666666666</ele><time>2026-04-25T12:58:52.986Z</time></trkpt><trkpt lat="43.05748755265937" lon="11.490685348468439"><ele>547.3333333333334</ele><time>2026-04-25T12:58:58.986Z</time></trkpt><trkpt lat="43.057454526447096" lon="11.490521911037705"><ele>548.0</ele><time>2026-04-25T12:59:00.986Z</time></trkpt><trkpt lat="43.05749863897249" lon="11.49041261213891"><ele>548.6666666666667</ele><time>2026-04-25T12:59:02.986Z</time></trkpt><trkpt lat="43.05756642512538" lon="11.490408676168409"><ele>549.3333333333334</ele><time>2026-04-25T12:59:03.986Z</time></trkpt><trkpt lat="43.057654519672894" lon="11.49035885430851"><ele>550.0</ele><time>2026-04-25T12:59:05.986Z</time></trkpt><trkpt lat="43.05769961330836" lon="11.490281678343674"><ele>550.0</ele><time>2026-04-25T12:59:11.986Z</time></trkpt><trkpt lat="43.05757489122887" lon="11.490195637696575"><ele>550.0</ele><time>2026-04-25T12:59:17.985Z</time></trkpt><trkpt lat="43.057477673185026" lon="11.490214359160616"><ele>550.0</ele><time>2026-04-25T12:59:19.985Z</time></trkpt><trkpt lat="43.05740777953569" lon="11.49023042338778"><ele>550.0</ele><time>2026-04-25T12:59:22.985Z</time></trkpt><trkpt lat="43.057379310269816" lon="11.490037706592739"><ele>550.0</ele><time>2026-04-25T12:59:24.985Z</time></trkpt><trkpt lat="43.057334884148766" lon="11.489924334273654"><ele>550.0</ele><time>2026-04-25T12:59:26.985Z</time></trkpt><trkpt lat="43.05729512974241" lon="11.489795621133755"><ele>550.0</ele><time>2026-04-25T12:59:28.985Z</time></trkpt><trkpt lat="43.05724949889093" lon="11.489656579112303"><ele>550.0</ele><time>2026-04-25T12:59:30.985Z</time></trkpt><trkpt lat="43.05723347828156" lon="11.489545456198805"><ele>550.0</ele><time>2026-04-25T12:59:32.985Z</time></trkpt><trkpt lat="43.05718360670753" lon="11.489430820006344"><ele>550.0</ele><time>2026-04-25T12:59:34.985Z</time></trkpt><trkpt lat="43.05715395637555" lon="11.489305611428321"><ele>550.0</ele><time>2026-04-25T12:59:36.985Z</time></trkpt><trkpt lat="43.05710785988308" lon="11.489213740246575"><ele>550.0</ele><time>2026-04-25T12:59:38.985Z</time></trkpt><trkpt lat="43.05706534670716" lon="11.489113666822774"><ele>550.0</ele><time>2026-04-25T12:59:41.985Z</time></trkpt><trkpt lat="43.05721825767151" lon="11.488931692130649"><ele>550.0</ele><time>2026-04-25T12:59:44.985Z</time></trkpt><trkpt lat="43.057262987642225" lon="11.488860742485642"><ele>550.0</ele><time>2026-04-25T12:59:45.985Z</time></trkpt><trkpt lat="43.057304226071835" lon="11.488795331062141"><ele>550.0</ele><time>2026-04-25T12:59:46.985Z</time></trkpt><trkpt lat="43.05735385484735" lon="11.488684553203592"><ele>550.0</ele><time>2026-04-25T12:59:48.985Z</time></trkpt><trkpt lat="43.05741287279723" lon="11.488600354278187"><ele>550.0</ele><time>2026-04-25T12:59:51.984Z</time></trkpt><trkpt lat="43.05746408659729" lon="11.488523610253289"><ele>550.0</ele><time>2026-04-25T12:59:54.984Z</time></trkpt><trkpt lat="43.057521638024106" lon="11.488560530710139"><ele>550.3333333333334</ele><time>2026-04-25T12:59:57.984Z</time></trkpt><trkpt lat="43.057572874536895" lon="11.488648794657719"><ele>550.6666666666667</ele><time>2026-04-25T12:59:59.984Z</time></trkpt><trkpt lat="43.0576301389541" lon="11.488727419794294"><ele>551.0</ele><time>2026-04-25T13:00:01.984Z</time></trkpt><trkpt lat="43.0576876559164" lon="11.488804098209792"><ele>551.3333333333334</ele><time>2026-04-25T13:00:04.984Z</time></trkpt><trkpt lat="43.057743768569004" lon="11.488884262836802"><ele>551.6666666666666</ele><time>2026-04-25T13:00:07.984Z</time></trkpt><trkpt lat="43.05778382043857" lon="11.488968359636097"><ele>552.0</ele><time>2026-04-25T13:00:21.984Z</time></trkpt><trkpt lat="43.057831471920366" lon="11.48903393612376"><ele>552.8333333333334</ele><time>2026-04-25T13:00:25.984Z</time></trkpt><trkpt lat="43.05787743774391" lon="11.489097622732123"><ele>553.6666666666666</ele><time>2026-04-25T13:00:28.983Z</time></trkpt><trkpt lat="43.05798730345306" lon="11.489004977845205"><ele>554.5</ele><time>2026-04-25T13:00:31.983Z</time></trkpt><trkpt lat="43.058050431563125" lon="11.488936427223939"><ele>555.3333333333333</ele><time>2026-04-25T13:00:33.983Z</time></trkpt><trkpt lat="43.058113989333044" lon="11.488879211180823"><ele>556.1666666666666</ele><time>2026-04-25T13:00:35.983Z</time></trkpt><trkpt lat="43.05817918997619" lon="11.488880354359214"><ele>557.0</ele><time>2026-04-25T13:00:38.983Z</time></trkpt><trkpt lat="43.05825040204588" lon="11.488848230573062"><ele>556.7142857142858</ele><time>2026-04-25T13:00:40.983Z</time></trkpt><trkpt lat="43.05831563861284" lon="11.488831556591265"><ele>556.4285714285714</ele><time>2026-04-25T13:00:42.983Z</time></trkpt><trkpt lat="43.0584042228187" lon="11.488844332661785"><ele>556.1428571428571</ele><time>2026-04-25T13:00:45.983Z</time></trkpt><trkpt lat="43.05847398402729" lon="11.488836714701891"><ele>555.8571428571429</ele><time>2026-04-25T13:00:47.983Z</time></trkpt><trkpt lat="43.05855820175143" lon="11.488827518116086"><ele>555.5714285714286</ele><time>2026-04-25T13:00:50.983Z</time></trkpt><trkpt lat="43.05862805467627" lon="11.488819890123235"><ele>555.2857142857143</ele><time>2026-04-25T13:00:52.983Z</time></trkpt><trkpt lat="43.058694920755" lon="11.488812587489312"><ele>555.0</ele><time>2026-04-25T13:00:53.983Z</time></trkpt><trkpt lat="43.05881049175555" lon="11.48880920207456"><ele>555.0</ele><time>2026-04-25T13:00:56.983Z</time></trkpt><trkpt lat="43.058895951035346" lon="11.488805070927047"><ele>555.0</ele><time>2026-04-25T13:00:58.983Z</time></trkpt><trkpt lat="43.05897567219144" lon="11.488794247693557"><ele>555.0</ele><time>2026-04-25T13:00:59.983Z</time></trkpt><trkpt lat="43.059066316040195" lon="11.488809387461094"><ele>555.0</ele><time>2026-04-25T13:01:00.983Z</time></trkpt><trkpt lat="43.05914160597924" lon="11.4888285436974"><ele>555.0</ele><time>2026-04-25T13:01:01.983Z</time></trkpt><trkpt lat="43.05920644267163" lon="11.488849766587471"><ele>555.0</ele><time>2026-04-25T13:01:02.983Z</time></trkpt><trkpt lat="43.05927123533414" lon="11.488874011161911"><ele>554.0</ele><time>2026-04-25T13:01:03.983Z</time></trkpt><trkpt lat="43.059343481841125" lon="11.488892266659388"><ele>553.0</ele><time>2026-04-25T13:01:04.982Z</time></trkpt><trkpt lat="43.05944301033368" lon="11.488942208169108"><ele>552.0</ele><time>2026-04-25T13:01:06.982Z</time></trkpt><trkpt lat="43.05951802334351" lon="11.488962265492402"><ele>551.0</ele><time>2026-04-25T13:01:08.982Z</time></trkpt><trkpt lat="43.059588891194586" lon="11.4890098686251"><ele>550.0</ele><time>2026-04-25T13:01:10.982Z</time></trkpt><trkpt lat="43.05969483829448" lon="11.4890610410095"><ele>549.0</ele><time>2026-04-25T13:01:12.982Z</time></trkpt><trkpt lat="43.05977120059988" lon="11.48908661363204"><ele>549.0</ele><time>2026-04-25T13:01:14.982Z</time></trkpt><trkpt lat="43.05985618059756" lon="11.489115361885808"><ele>549.0</ele><time>2026-04-25T13:01:16.982Z</time></trkpt><trkpt lat="43.05995282679559" lon="11.48919017733"><ele>549.0</ele><time>2026-04-25T13:01:18.982Z</time></trkpt><trkpt lat="43.06002814197894" lon="11.489256628568782"><ele>549.0</ele><time>2026-04-25T13:01:20.982Z</time></trkpt><trkpt lat="43.060123505025906" lon="11.489333921623347"><ele>549.0</ele><time>2026-04-25T13:01:22.982Z</time></trkpt><trkpt lat="43.060197538132456" lon="11.48941484024552"><ele>548.3333333333334</ele><time>2026-04-25T13:01:24.982Z</time></trkpt><trkpt lat="43.060262945441295" lon="11.489492382915644"><ele>547.6666666666666</ele><time>2026-04-25T13:01:26.982Z</time></trkpt><trkpt lat="43.060337443417204" lon="11.489584445715755"><ele>547.0</ele><time>2026-04-25T13:01:28.982Z</time></trkpt><trkpt lat="43.0603920155729" lon="11.489668473266509"><ele>546.3333333333333</ele><time>2026-04-25T13:01:30.982Z</time></trkpt><trkpt lat="43.0604308270696" lon="11.489739639418678"><ele>545.6666666666666</ele><time>2026-04-25T13:01:32.982Z</time></trkpt><trkpt lat="43.06047133552253" lon="11.48981423607738"><ele>545.0</ele><time>2026-04-25T13:01:35.982Z</time></trkpt><trkpt lat="43.0604966539114" lon="11.48989747918294"><ele>542.6666666666666</ele><time>2026-04-25T13:01:38.982Z</time></trkpt><trkpt lat="43.06053791539492" lon="11.48998951183177"><ele>540.3333333333333</ele><time>2026-04-25T13:01:40.982Z</time></trkpt><trkpt lat="43.06059187263629" lon="11.490070574085852"><ele>538.0</ele><time>2026-04-25T13:01:42.981Z</time></trkpt><trkpt lat="43.060638309098664" lon="11.490187312639547"><ele>535.6666666666666</ele><time>2026-04-25T13:01:45.981Z</time></trkpt><trkpt lat="43.06065011962187" lon="11.490282356554854"><ele>533.3333333333334</ele><time>2026-04-25T13:01:47.981Z</time></trkpt><trkpt lat="43.06066276925831" lon="11.490392175970825"><ele>531.0</ele><time>2026-04-25T13:01:49.981Z</time></trkpt><trkpt lat="43.06066754556893" lon="11.49051017102506"><ele>528.5</ele><time>2026-04-25T13:01:51.981Z</time></trkpt><trkpt lat="43.060689257027676" lon="11.490641679207473"><ele>526.0</ele><time>2026-04-25T13:01:53.981Z</time></trkpt><trkpt lat="43.06071333775758" lon="11.490753017967743"><ele>523.5</ele><time>2026-04-25T13:01:55.981Z</time></trkpt><trkpt lat="43.060760585535746" lon="11.490830238802511"><ele>521.0</ele><time>2026-04-25T13:01:57.981Z</time></trkpt><trkpt lat="43.06079163565933" lon="11.490930063198833"><ele>518.5</ele><time>2026-04-25T13:02:01.981Z</time></trkpt><trkpt lat="43.06087630056508" lon="11.490949625502536"><ele>516.0</ele><time>2026-04-25T13:02:03.981Z</time></trkpt><trkpt lat="43.06095819075966" lon="11.490942417117152"><ele>516.0</ele><time>2026-04-25T13:02:05.981Z</time></trkpt><trkpt lat="43.06102271205143" lon="11.490943554290912"><ele>516.0</ele><time>2026-04-25T13:02:07.981Z</time></trkpt><trkpt lat="43.061099237131295" lon="11.490920982897073"><ele>516.0</ele><time>2026-04-25T13:02:09.981Z</time></trkpt><trkpt lat="43.06117524534413" lon="11.49085217804411"><ele>516.0</ele><time>2026-04-25T13:02:11.981Z</time></trkpt><trkpt lat="43.06126391694299" lon="11.4908095179796"><ele>516.0</ele><time>2026-04-25T13:02:13.981Z</time></trkpt><trkpt lat="43.06136126755546" lon="11.490755299212967"><ele>516.0</ele><time>2026-04-25T13:02:15.981Z</time></trkpt><trkpt lat="43.06142187335822" lon="11.490712537337256"><ele>516.0</ele><time>2026-04-25T13:02:17.981Z</time></trkpt><trkpt lat="43.061510017853244" lon="11.490687883595992"><ele>516.0</ele><time>2026-04-25T13:02:19.98Z</time></trkpt><trkpt lat="43.06157175419119" lon="11.490649880704577"><ele>516.0</ele><time>2026-04-25T13:02:21.98Z</time></trkpt><trkpt lat="43.06162806517302" lon="11.490589869592466"><ele>516.0</ele><time>2026-04-25T13:02:23.98Z</time></trkpt><trkpt lat="43.06168183143927" lon="11.490528650797689"><ele>516.0</ele><time>2026-04-25T13:02:26.98Z</time></trkpt><trkpt lat="43.06172867415798" lon="11.490439448062705"><ele>516.0</ele><time>2026-04-25T13:02:28.98Z</time></trkpt><trkpt lat="43.06178220468727" lon="11.490360442436653"><ele>514.2</ele><time>2026-04-25T13:02:30.98Z</time></trkpt><trkpt lat="43.06184400311756" lon="11.4902449791618"><ele>512.4000000000001</ele><time>2026-04-25T13:02:32.98Z</time></trkpt><trkpt lat="43.06190329857582" lon="11.490114273663922"><ele>510.6</ele><time>2026-04-25T13:02:34.98Z</time></trkpt><trkpt lat="43.061967318556896" lon="11.489982330665327"><ele>508.8</ele><time>2026-04-25T13:02:36.98Z</time></trkpt><trkpt lat="43.062008747193715" lon="11.489905965948926"><ele>507.0</ele><time>2026-04-25T13:02:37.98Z</time></trkpt><trkpt lat="43.0620426198301" lon="11.489826368286389"><ele>507.0</ele><time>2026-04-25T13:02:38.98Z</time></trkpt><trkpt lat="43.06207550292969" lon="11.489739267916002"><ele>507.0</ele><time>2026-04-25T13:02:39.98Z</time></trkpt><trkpt lat="43.06209742255209" lon="11.489642178898118"><ele>507.0</ele><time>2026-04-25T13:02:40.98Z</time></trkpt><trkpt lat="43.06212479798915" lon="11.4895467733796"><ele>507.0</ele><time>2026-04-25T13:02:41.98Z</time></trkpt><trkpt lat="43.062156219176806" lon="11.489424801924004"><ele>507.0</ele><time>2026-04-25T13:02:43.98Z</time></trkpt><trkpt lat="43.06217887664499" lon="11.489325909648588"><ele>507.0</ele><time>2026-04-25T13:02:46.98Z</time></trkpt><trkpt lat="43.062226219626524" lon="11.489262815943812"><ele>507.0</ele><time>2026-04-25T13:02:51.98Z</time></trkpt><trkpt lat="43.062269639816975" lon="11.48933316298046"><ele>507.0</ele><time>2026-04-25T13:02:56.979Z</time></trkpt><trkpt lat="43.06227557525173" lon="11.489425500374443"><ele>507.0</ele><time>2026-04-25T13:02:59.979Z</time></trkpt><trkpt lat="43.06229165964402" lon="11.489514865068939"><ele>507.0</ele><time>2026-04-25T13:03:01.979Z</time></trkpt><trkpt lat="43.062300192072186" lon="11.489607181547232"><ele>507.0</ele><time>2026-04-25T13:03:03.979Z</time></trkpt><trkpt lat="43.06231847160381" lon="11.489735473738978"><ele>507.0</ele><time>2026-04-25T13:03:06.979Z</time></trkpt><trkpt lat="43.06233338674384" lon="11.48982711646328"><ele>507.0</ele><time>2026-04-25T13:03:08.979Z</time></trkpt><trkpt lat="43.06234586213017" lon="11.489917710816837"><ele>507.0</ele><time>2026-04-25T13:03:10.979Z</time></trkpt><trkpt lat="43.062361433440095" lon="11.490012187941188"><ele>507.0</ele><time>2026-04-25T13:03:12.979Z</time></trkpt><trkpt lat="43.06238067913942" lon="11.49013886095581"><ele>507.0</ele><time>2026-04-25T13:03:15.979Z</time></trkpt><trkpt lat="43.06238970484363" lon="11.490253163240208"><ele>507.0</ele><time>2026-04-25T13:03:18.979Z</time></trkpt><trkpt lat="43.06238878319219" lon="11.490346340265292"><ele>507.0</ele><time>2026-04-25T13:03:21.979Z</time></trkpt></trkseg></trk></gpx>